Time;durP1;ratioP1;P1;durP2;ratioP2;P2;SDS_P1;SDS_P2;PMS_P1;PMS_P2;Temp;Humidity;BMP_temperature;BMP_pressure;BME280_temperature;BME280_humidity;BME280_pressure;Samples;Min_cycle;Max_cycle;Signal;HPM_P1;HPM_P2
2022/09/02 00:01:03;;;;;;;4.27;3.87;;;;;;;24.71;43.46;99727.03;4140971;28;20233;-62
2022/09/02 00:03:04;;;;;;;6.03;4.30;;;;;;;24.82;42.89;99729.66;4140315;28;20238;-62
2022/09/02 00:05:06;;;;;;;4.30;3.90;;;;;;;24.13;43.88;99733.59;4143483;28;20647;-62
2022/09/02 00:07:08;;;;;;;4.70;4.17;;;;;;;24.77;43.04;99718.72;4143478;28;20913;-62
2022/09/02 00:09:12;;;;;;;5.80;3.90;;;;;;;24.79;42.86;99726.63;4138899;28;20237;-62
2022/09/02 00:11:20;;;;;;;5.27;4.77;;;;;;;24.73;43.12;99722.16;4143997;28;20257;-62
2022/09/02 00:13:22;;;;;;;5.60;3.80;;;;;;;25.15;42.33;99707.94;4138653;28;20228;-62
2022/09/02 00:15:23;;;;;;;5.77;3.83;;;;;;;24.52;43.37;99727.34;4140546;28;20234;-62
2022/09/02 00:17:25;;;;;;;4.63;3.47;;;;;;;24.85;42.89;99726.44;4135704;28;20246;-63
2022/09/02 00:19:28;;;;;;;4.73;3.77;;;;;;;23.83;44.74;99720.38;4143651;28;20270;-62
2022/09/02 00:21:33;;;;;;;4.40;4.00;;;;;;;23.61;44.14;99728.44;4142943;28;20688;-62
2022/09/02 00:23:35;;;;;;;4.10;3.80;;;;;;;23.86;44.60;99706.31;4142484;28;20310;-62
2022/09/02 00:25:39;;;;;;;6.07;4.43;;;;;;;24.42;43.62;99686.47;4141323;28;20302;-63
2022/09/02 00:27:40;;;;;;;6.10;4.00;;;;;;;24.47;43.66;99702.81;4138249;28;20249;-63
2022/09/02 00:29:42;;;;;;;5.10;4.20;;;;;;;24.18;43.64;99703.00;4139252;28;20284;-62
2022/09/02 00:31:44;;;;;;;4.73;4.00;;;;;;;24.40;43.70;99696.78;4145100;28;20240;-62
2022/09/02 00:33:47;;;;;;;4.20;3.80;;;;;;;24.47;43.12;99708.25;4139442;28;20239;-62
2022/09/02 00:35:49;;;;;;;6.13;3.93;;;;;;;25.04;42.64;99691.53;4144701;28;20907;-62
2022/09/02 00:37:51;;;;;;;5.20;4.13;;;;;;;24.64;43.23;99705.47;4141605;28;20297;-62
2022/09/02 00:39:53;;;;;;;5.00;4.30;;;;;;;24.55;43.00;99721.41;4141987;28;20255;-62
2022/09/02 00:41:54;;;;;;;4.90;4.20;;;;;;;24.42;43.38;99721.78;4139073;28;20229;-63
2022/09/02 00:44:00;;;;;;;5.67;4.30;;;;;;;25.03;42.75;99703.47;4141487;28;20227;-63
2022/09/02 00:46:02;;;;;;;6.77;3.70;;;;;;;24.48;42.95;99718.88;4149535;28;20237;-62
2022/09/02 00:48:05;;;;;;;4.73;3.67;;;;;;;24.10;43.24;99733.28;4143030;28;20245;-62
2022/09/02 00:50:10;;;;;;;6.70;4.20;;;;;;;24.55;43.21;99702.38;4141514;28;20272;-62
2022/09/02 00:52:25;;;;;;;4.97;4.00;;;;;;;24.15;43.74;99727.09;4152458;28;20232;-63
2022/09/02 00:54:33;;;;;;;6.83;4.10;;;;;;;24.46;43.35;99709.31;4133163;28;20238;-62
2022/09/02 00:56:37;;;;;;;5.57;4.00;;;;;;;24.21;43.42;99726.09;4135677;28;20233;-63
2022/09/02 00:58:41;;;;;;;5.27;4.20;;;;;;;24.62;42.79;99703.00;4139084;28;20284;-62
2022/09/02 01:00:45;;;;;;;5.73;3.73;;;;;;;23.71;44.35;99717.75;4139227;28;20237;-63
2022/09/02 01:02:51;;;;;;;4.30;3.90;;;;;;;23.92;44.10;99715.34;4140461;28;20229;-62
2022/09/02 01:04:55;;;;;;;7.43;4.43;;;;;;;23.99;43.80;99705.16;4142863;28;20354;-62
2022/09/02 01:06:57;;;;;;;5.67;4.10;;;;;;;23.78;44.18;99706.72;4145691;28;20240;-62
2022/09/02 01:09:13;;;;;;;5.97;3.93;;;;;;;23.92;44.01;99691.75;4142473;28;20240;-62
2022/09/02 01:11:17;;;;;;;5.27;4.27;;;;;;;24.26;43.10;99712.59;4141693;28;20243;-63
2022/09/02 01:13:23;;;;;;;4.43;4.00;;;;;;;24.22;43.26;99698.69;4145020;28;20288;-62
2022/09/02 01:15:26;;;;;;;4.43;3.90;;;;;;;23.44;44.75;99712.13;4141329;28;20225;-63
2022/09/02 01:17:27;;;;;;;4.63;3.87;;;;;;;23.69;44.41;99691.94;4145107;28;20245;-63
2022/09/02 01:19:37;;;;;;;5.90;4.20;;;;;;;23.08;45.04;99708.78;4142268;28;20302;-62
2022/09/02 01:21:45;;;;;;;4.43;4.03;;;;;;;23.43;44.75;99696.09;4138827;28;20288;-63
2022/09/02 01:23:48;;;;;;;4.60;4.20;;;;;;;23.98;43.92;99676.34;4135681;28;20700;-64
2022/09/02 01:25:51;;;;;;;4.30;3.90;;;;;;;23.97;44.06;99687.44;4142713;28;20233;-62
2022/09/02 01:27:57;;;;;;;5.97;4.20;;;;;;;24.09;43.58;99688.16;4145108;28;20328;-63
2022/09/02 01:29:59;;;;;;;5.27;4.00;;;;;;;24.21;43.40;99679.94;4140394;28;20232;-62
2022/09/02 01:32:01;;;;;;;4.40;4.00;;;;;;;23.85;43.99;99703.84;4139752;28;20687;-62
2022/09/02 01:34:05;;;;;;;5.47;3.90;;;;;;;23.80;44.29;99699.16;4133756;28;20264;-62
2022/09/02 01:36:07;;;;;;;5.63;4.13;;;;;;;24.19;43.34;99674.75;4141634;28;20651;-62
2022/09/02 01:38:10;;;;;;;4.30;3.90;;;;;;;23.76;44.13;99704.25;4145017;28;20672;-63
2022/09/02 01:40:16;;;;;;;4.50;3.87;;;;;;;23.36;44.61;99715.22;4141236;28;20311;-62
2022/09/02 01:42:19;;;;;;;5.27;4.20;;;;;;;23.30;44.75;99697.22;4145654;28;20332;-63
2022/09/02 01:44:21;;;;;;;6.77;4.03;;;;;;;23.60;44.47;99677.13;4132274;28;20319;-63
2022/09/02 01:46:23;;;;;;;4.40;4.00;;;;;;;23.18;44.98;99690.00;4132834;28;20234;-62
2022/09/02 01:48:25;;;;;;;5.80;4.40;;;;;;;23.65;44.18;99674.50;4136281;28;20752;-62
2022/09/02 01:50:27;;;;;;;4.17;3.77;;;;;;;23.18;44.87;99691.84;4135603;28;20225;-63
2022/09/02 01:52:29;;;;;;;5.83;3.73;;;;;;;23.25;44.78;99691.69;4133880;28;20228;-63
2022/09/02 01:54:31;;;;;;;5.20;4.70;;;;;;;23.54;44.65;99674.28;4127452;28;20226;-63
2022/09/02 01:56:32;;;;;;;5.23;4.00;;;;;;;23.50;44.66;99665.03;4126550;28;20222;-63
2022/09/02 01:58:34;;;;;;;6.67;4.20;;;;;;;23.34;44.42;99692.97;4134563;28;20664;-63
2022/09/02 02:00:36;;;;;;;5.47;4.27;;;;;;;23.01;44.77;99694.53;4142474;28;20232;-62
2022/09/02 02:02:38;;;;;;;5.17;4.00;;;;;;;24.21;43.48;99667.19;4141560;28;20234;-62
2022/09/02 02:04:44;;;;;;;5.20;3.80;;;;;;;23.45;44.49;99680.38;4144985;28;20278;-63
2022/09/02 02:06:47;;;;;;;5.23;4.00;;;;;;;23.75;44.03;99680.06;4140168;28;20268;-63
2022/09/02 02:08:52;;;;;;;4.20;3.80;;;;;;;23.44;44.24;99687.69;4138794;28;20645;-62
2022/09/02 02:10:56;;;;;;;6.17;4.40;;;;;;;22.91;44.85;99699.75;4144188;28;20233;-64
2022/09/02 02:12:59;;;;;;;5.00;3.93;;;;;;;23.85;43.69;99657.69;4145415;28;20310;-64
2022/09/02 02:15:03;;;;;;;6.67;4.67;;;;;;;23.29;44.54;99674.69;4142179;28;20232;-64
2022/09/02 02:17:05;;;;;;;4.13;3.73;;;;;;;23.34;44.20;99692.97;4142364;28;20699;-64
2022/09/02 02:19:07;;;;;;;4.60;3.70;;;;;;;23.43;44.17;99682.53;4139815;28;20941;-64
2022/09/02 02:21:10;;;;;;;6.50;3.57;;;;;;;23.51;44.10;99682.94;4139559;28;20246;-64
2022/09/02 02:23:12;;;;;;;4.87;3.80;;;;;;;23.79;43.46;99672.25;4142914;28;20233;-64
2022/09/02 02:25:15;;;;;;;4.00;3.60;;;;;;;24.04;43.05;99674.50;4142314;28;20648;-63
2022/09/02 02:27:16;;;;;;;6.13;4.47;;;;;;;23.13;44.03;99705.31;4138519;28;20898;-63
2022/09/02 02:29:18;;;;;;;4.33;3.93;;;;;;;22.53;45.73;99679.50;4140146;28;20661;-64
2022/09/02 02:31:21;;;;;;;4.57;4.00;;;;;;;23.20;44.33;99682.41;4139706;28;20292;-64
2022/09/02 02:33:22;;;;;;;4.90;4.20;;;;;;;24.09;42.74;99661.84;4144870;28;20315;-64
2022/09/02 02:35:32;;;;;;;4.50;4.10;;;;;;;23.58;43.80;99674.66;4143437;28;20744;-64
2022/09/02 02:37:34;;;;;;;4.43;4.03;;;;;;;23.64;43.78;99689.16;4142103;28;20240;-64
2022/09/02 02:39:35;;;;;;;4.77;4.10;;;;;;;23.56;43.51;99693.09;4144766;28;20302;-64
2022/09/02 02:41:40;;;;;;;5.27;4.00;;;;;;;23.95;42.56;99679.56;4137692;28;20237;-64
2022/09/02 02:43:46;;;;;;;4.60;4.17;;;;;;;24.05;43.07;99668.00;4140267;28;20243;-63
2022/09/02 02:45:48;;;;;;;4.57;4.00;;;;;;;23.43;43.87;99691.47;4146358;28;20232;-64
2022/09/02 02:47:51;;;;;;;4.50;4.10;;;;;;;23.58;43.46;99693.66;4144545;28;20854;-64
2022/09/02 02:49:53;;;;;;;5.07;3.97;;;;;;;23.67;43.79;99681.31;4143568;28;20235;-62
2022/09/02 02:51:54;;;;;;;4.70;4.10;;;;;;;22.54;45.20;99719.06;4146605;28;20229;-64
2022/09/02 02:53:56;;;;;;;6.43;4.00;;;;;;;23.63;43.52;99673.91;4137026;28;20240;-63
2022/09/02 02:55:59;;;;;;;4.43;4.00;;;;;;;23.80;43.40;99679.34;4137156;28;20779;-64
2022/09/02 02:58:01;;;;;;;3.80;3.50;;;;;;;23.47;43.86;99673.66;4137296;28;20287;-64
2022/09/02 03:00:07;;;;;;;5.83;4.30;;;;;;;22.89;44.65;99694.56;4141098;28;20705;-63
2022/09/02 03:02:09;;;;;;;5.60;4.33;;;;;;;23.17;44.52;99665.81;4142337;28;20236;-64
2022/09/02 03:04:11;;;;;;;5.33;4.20;;;;;;;22.99;44.56;99691.25;4140791;28;20241;-63
2022/09/02 03:06:13;;;;;;;4.50;4.10;;;;;;;23.65;43.46;99669.88;4136623;28;20611;-64
2022/09/02 03:08:15;;;;;;;8.13;4.37;;;;;;;23.72;43.71;99659.69;4149164;28;21096;-64
2022/09/02 03:10:17;;;;;;;5.77;4.00;;;;;;;23.38;43.93;99688.69;4136744;28;20236;-64
2022/09/02 03:12:19;;;;;;;4.33;3.97;;;;;;;23.28;43.88;99681.22;4143778;28;20237;-64
2022/09/02 03:14:21;;;;;;;7.50;4.17;;;;;;;23.93;42.88;99666.22;4133323;28;20232;-64
2022/09/02 03:16:22;;;;;;;6.53;4.83;;;;;;;23.50;43.60;99696.75;4122930;28;20234;-64
2022/09/02 03:18:24;;;;;;;4.57;4.13;;;;;;;23.66;43.22;99682.38;4138545;28;20253;-64
2022/09/02 03:20:27;;;;;;;5.80;4.30;;;;;;;23.70;43.26;99685.41;4133509;28;20239;-64
2022/09/02 03:22:28;;;;;;;4.53;4.13;;;;;;;23.95;42.68;99696.66;4136685;28;20239;-64
2022/09/02 03:24:30;;;;;;;4.83;4.30;;;;;;;23.23;44.02;99715.53;4137808;28;20237;-64
2022/09/02 03:26:32;;;;;;;5.93;4.10;;;;;;;23.51;43.60;99696.50;4133176;28;20279;-64
2022/09/02 03:28:33;;;;;;;5.27;4.30;;;;;;;22.84;45.08;99711.56;4139024;28;20236;-64
2022/09/02 03:30:35;;;;;;;5.77;4.70;;;;;;;23.35;44.00;99681.03;4136507;28;20226;-64
2022/09/02 03:32:37;;;;;;;4.63;4.23;;;;;;;23.08;44.04;99700.66;4146245;28;20228;-64
2022/09/02 03:34:40;;;;;;;4.97;4.47;;;;;;;23.58;43.35;99680.09;4144453;28;20242;-64
2022/09/02 03:36:45;;;;;;;6.10;4.37;;;;;;;22.84;44.83;99692.59;4141515;28;20240;-64
2022/09/02 03:38:46;;;;;;;5.80;4.60;;;;;;;23.66;43.26;99673.44;4144313;28;20240;-63
2022/09/02 03:40:48;;;;;;;8.23;4.73;;;;;;;23.60;43.25;99677.13;4138942;28;20236;-64
2022/09/02 03:42:51;;;;;;;6.13;4.87;;;;;;;23.90;42.99;99674.03;4133512;28;20674;-64
2022/09/02 03:44:58;;;;;;;7.20;4.70;;;;;;;23.53;43.45;99680.78;4130052;28;20314;-64
2022/09/02 03:47:00;;;;;;;5.37;4.23;;;;;;;22.24;45.77;99701.09;4141249;28;20640;-64
2022/09/02 03:49:02;;;;;;;6.80;4.60;;;;;;;23.20;44.12;99666.16;4143845;28;20232;-64
2022/09/02 03:51:04;;;;;;;4.40;4.00;;;;;;;22.87;44.75;99666.88;4146541;28;20233;-64
2022/09/02 03:53:06;;;;;;;5.77;4.30;;;;;;;23.22;44.02;99665.09;4146322;28;20236;-64
2022/09/02 03:55:09;;;;;;;5.13;4.27;;;;;;;23.04;44.08;99677.78;4144880;28;20229;-64
2022/09/02 03:57:10;;;;;;;7.93;5.07;;;;;;;23.43;43.81;99672.47;4147506;28;20237;-63
2022/09/02 03:59:12;;;;;;;6.37;4.70;;;;;;;23.34;43.56;99668.53;4140533;28;20232;-64
2022/09/02 04:01:23;;;;;;;5.03;4.53;;;;;;;23.44;43.17;99684.19;4143661;28;20229;-64
2022/09/02 04:03:28;;;;;;;7.90;4.63;;;;;;;23.65;43.09;99691.59;4148978;28;20241;-63
2022/09/02 04:05:30;;;;;;;6.20;5.07;;;;;;;23.34;43.52;99682.09;4141524;28;20764;-63
2022/09/02 04:07:31;;;;;;;6.23;4.63;;;;;;;23.48;43.01;99690.75;4140183;28;20608;-63
2022/09/02 04:09:33;;;;;;;8.10;4.80;;;;;;;23.62;42.98;99680.41;4146678;28;20255;-63
2022/09/02 04:11:36;;;;;;;8.57;4.93;;;;;;;23.30;43.72;99684.50;4139642;28;20230;-63
2022/09/02 04:13:38;;;;;;;4.77;4.07;;;;;;;23.01;43.87;99689.97;4139120;28;20300;-64
2022/09/02 04:15:46;;;;;;;6.17;5.20;;;;;;;23.25;43.60;99689.00;4131318;28;20316;-64
2022/09/02 04:17:48;;;;;;;6.20;4.53;;;;;;;23.54;42.92;99682.44;4137718;28;20725;-64
2022/09/02 04:19:53;;;;;;;9.30;5.17;;;;;;;22.51;44.58;99716.81;4145948;28;20228;-64
2022/09/02 04:21:55;;;;;;;7.57;4.70;;;;;;;22.63;44.11;99715.75;4139547;28;20263;-64
2022/09/02 04:23:56;;;;;;;4.90;4.40;;;;;;;23.19;43.73;99675.34;4144279;28;20745;-64
2022/09/02 04:26:03;;;;;;;5.93;4.87;;;;;;;23.23;43.58;99683.00;4124130;28;20230;-64
2022/09/02 04:28:04;;;;;;;5.67;4.83;;;;;;;22.60;44.63;99699.16;4122152;28;20257;-63
2022/09/02 04:30:08;;;;;;;5.60;4.80;;;;;;;22.64;44.78;99662.34;4119826;28;20300;-63
2022/09/02 04:32:09;;;;;;;12.10;6.00;;;;;;;22.37;44.88;99687.31;4120537;28;20586;-64
2022/09/02 04:34:11;;;;;;;6.43;5.37;;;;;;;21.82;45.72;99691.22;4119232;28;20265;-63
2022/09/02 04:36:16;;;;;;;5.20;4.50;;;;;;;22.56;45.32;99636.50;4118699;28;20322;-64
2022/09/02 04:38:17;;;;;;;5.73;5.10;;;;;;;23.24;43.71;99642.06;4119759;28;20446;-64
2022/09/02 04:40:19;;;;;;;5.60;4.83;;;;;;;23.09;43.55;99663.50;4122045;28;20254;-64
2022/09/02 04:42:21;;;;;;;5.37;4.67;;;;;;;22.78;43.93;99676.47;4150838;28;20669;-63
2022/09/02 04:44:24;;;;;;;5.30;4.80;;;;;;;22.33;45.16;99663.66;4143114;28;20233;-63
2022/09/02 04:46:26;;;;;;;5.83;4.47;;;;;;;22.36;44.85;99669.41;4141174;28;20237;-64
2022/09/02 04:48:36;;;;;;;5.67;5.07;;;;;;;22.60;44.71;99661.22;4142714;28;20236;-64
2022/09/02 04:50:39;;;;;;;5.73;4.90;;;;;;;22.97;43.82;99650.00;4147075;28;20725;-64
2022/09/02 04:52:41;;;;;;;7.17;5.20;;;;;;;22.24;45.18;99685.66;4147303;28;20240;-64
2022/09/02 04:54:42;;;;;;;5.97;4.87;;;;;;;22.49;44.50;99681.88;4142603;28;20576;-64
2022/09/02 04:56:44;;;;;;;8.13;4.87;;;;;;;22.73;44.30;99662.81;4144482;28;20241;-64
2022/09/02 04:58:46;;;;;;;7.37;4.83;;;;;;;22.60;44.56;99677.47;4142845;28;20306;-64
2022/09/02 05:00:48;;;;;;;6.03;5.10;;;;;;;22.41;44.78;99683.06;4143760;28;20228;-64
2022/09/02 05:02:53;;;;;;;6.00;5.07;;;;;;;22.63;44.71;99669.69;4138256;28;20717;-64
2022/09/02 05:04:54;;;;;;;5.33;4.80;;;;;;;22.50;44.57;99690.81;4136348;28;20960;-64
2022/09/02 05:06:59;;;;;;;5.10;4.60;;;;;;;22.73;44.28;99665.53;4140059;28;20234;-63
2022/09/02 05:09:01;;;;;;;5.60;5.00;;;;;;;22.70;44.30;99669.53;4136059;28;21053;-64
2022/09/02 05:11:07;;;;;;;4.87;4.33;;;;;;;22.43;44.72;99678.22;4141825;28;20752;-64
2022/09/02 05:13:09;;;;;;;5.30;4.80;;;;;;;22.49;44.68;99668.31;4137245;28;20233;-64
2022/09/02 05:15:11;;;;;;;6.43;4.80;;;;;;;22.17;45.62;99684.13;4131604;28;20241;-63
2022/09/02 05:17:14;;;;;;;4.97;4.57;;;;;;;22.35;45.09;99658.81;4123114;28;20285;-64
2022/09/02 05:19:16;;;;;;;4.83;4.43;;;;;;;21.63;46.47;99676.13;4120356;28;20230;-63
2022/09/02 05:21:18;;;;;;;5.87;4.53;;;;;;;22.55;44.69;99640.25;4120731;28;20230;-64
2022/09/02 05:23:19;;;;;;;4.90;4.40;;;;;;;22.63;44.39;99652.59;4120976;28;20261;-63
2022/09/02 05:25:21;;;;;;;5.20;4.63;;;;;;;22.61;44.33;99660.16;4119124;28;20239;-63
2022/09/02 05:27:24;;;;;;;4.97;4.47;;;;;;;22.70;44.49;99661.41;4112648;28;20239;-64
2022/09/02 05:29:27;;;;;;;9.43;4.70;;;;;;;22.30;44.97;99685.78;4117407;28;20784;-64
2022/09/02 05:31:29;;;;;;;5.33;4.80;;;;;;;22.27;44.69;99703.28;4114519;28;20242;-64
2022/09/02 05:33:39;;;;;;;8.47;4.50;;;;;;;21.36;46.77;99696.31;4120236;28;20246;-64
2022/09/02 05:35:43;;;;;;;6.03;4.90;;;;;;;21.54;46.70;99678.31;4115726;28;20245;-64
2022/09/02 05:37:46;;;;;;;5.17;4.60;;;;;;;22.06;45.79;99656.81;4117868;28;20289;-64
2022/09/02 05:39:48;;;;;;;5.50;4.60;;;;;;;22.23;45.10;99673.16;4116629;28;20222;-64
2022/09/02 05:41:50;;;;;;;5.37;4.87;;;;;;;22.03;45.48;99692.47;4138463;28;20356;-64
2022/09/02 05:44:00;;;;;;;6.80;4.33;;;;;;;22.58;44.88;99652.50;4136844;28;20228;-64
2022/09/02 05:46:09;;;;;;;6.80;4.70;;;;;;;22.44;45.12;99666.31;4133129;28;20233;-64
2022/09/02 05:50:31;;;;;;;7.87;4.50;;;;;;;22.73;44.67;99651.97;4134796;28;20372;-64
2022/09/02 05:52:33;;;;;;;4.97;3.80;;;;;;;22.18;45.40;99677.66;4137223;28;20658;-64
2022/09/02 05:54:37;;;;;;;5.37;4.33;;;;;;;21.94;46.14;99677.69;4132624;28;20233;-64
2022/09/02 05:56:41;;;;;;;4.90;4.00;;;;;;;22.50;45.32;99648.28;4137518;28;20292;-64
2022/09/02 05:58:45;;;;;;;5.57;4.10;;;;;;;21.50;46.19;99698.81;4125225;28;20229;-64
2022/09/02 06:00:47;;;;;;;6.07;4.00;;;;;;;21.78;46.13;99690.03;4120228;28;20237;-64
2022/09/02 06:02:49;;;;;;;4.40;3.70;;;;;;;22.28;45.20;99673.28;4113877;28;20261;-64
2022/09/02 06:04:52;;;;;;;4.67;4.00;;;;;;;22.16;45.30;99682.50;4118249;28;20238;-64
2022/09/02 06:06:54;;;;;;;5.57;4.13;;;;;;;21.69;45.75;99689.53;4122222;28;20233;-64
2022/09/02 06:08:57;;;;;;;5.17;4.13;;;;;;;21.42;46.47;99693.72;4119024;28;20783;-64
2022/09/02 06:11:02;;;;;;;4.47;3.90;;;;;;;22.35;45.15;99666.94;4119759;28;20800;-64
2022/09/02 06:13:04;;;;;;;5.87;4.00;;;;;;;21.89;46.13;99664.84;4117680;28;20827;-63
2022/09/02 06:15:06;;;;;;;4.10;3.60;;;;;;;22.28;45.21;99658.91;4122306;28;20230;-64
2022/09/02 06:17:08;;;;;;;4.13;3.50;;;;;;;21.27;46.64;99692.25;4116625;28;20296;-64
2022/09/02 06:19:10;;;;;;;4.10;3.57;;;;;;;21.73;45.86;99676.38;4115411;28;20238;-64
2022/09/02 06:21:12;;;;;;;3.60;3.30;;;;;;;21.39;46.68;99680.66;4116556;28;20288;-63
2022/09/02 06:23:15;;;;;;;4.13;3.60;;;;;;;21.73;45.82;99689.91;4115007;28;20234;-64
2022/09/02 06:25:19;;;;;;;4.53;3.57;;;;;;;22.11;45.83;99645.28;4116115;28;20226;-64
2022/09/02 06:27:21;;;;;;;3.93;3.57;;;;;;;22.16;45.64;99644.59;4112354;28;20233;-64
2022/09/02 06:29:24;;;;;;;5.27;3.90;;;;;;;21.54;45.78;99694.56;4119841;28;20234;-64
2022/09/02 06:31:26;;;;;;;4.93;3.30;;;;;;;22.61;44.59;99633.06;4113713;28;20239;-65
2022/09/02 06:33:36;;;;;;;4.00;3.03;;;;;;;21.84;45.87;99682.84;4122723;28;20234;-65
2022/09/02 06:35:41;;;;;;;3.97;3.57;;;;;;;22.88;44.04;99659.56;4113167;28;20242;-64
2022/09/02 06:37:43;;;;;;;4.83;3.33;;;;;;;22.65;44.63;99666.72;4118513;28;20237;-64
2022/09/02 06:39:45;;;;;;;4.77;3.87;;;;;;;23.28;43.81;99659.50;4116675;28;20292;-63
2022/09/02 06:41:47;;;;;;;8.37;3.40;;;;;;;22.61;44.55;99688.06;4119248;28;20260;-64
2022/09/02 06:43:49;;;;;;;4.67;3.40;;;;;;;22.27;45.55;99684.34;4122685;28;20233;-64
2022/09/02 06:45:51;;;;;;;5.23;3.47;;;;;;;21.95;45.07;99709.09;4141171;28;20685;-64
2022/09/02 06:47:53;;;;;;;6.00;3.50;;;;;;;22.73;45.08;99654.69;4136787;28;20240;-64
2022/09/02 06:49:54;;;;;;;4.30;3.10;;;;;;;22.94;44.01;99654.00;4134120;28;20233;-64
2022/09/02 06:51:59;;;;;;;4.50;3.07;;;;;;;22.64;44.86;99674.03;4136013;28;20221;-63
2022/09/02 06:54:01;;;;;;;4.93;3.00;;;;;;;22.61;45.12;99652.84;4134155;28;20245;-64
2022/09/02 06:56:06;;;;;;;4.53;2.93;;;;;;;22.71;44.36;99659.50;4135271;28;20295;-63
2022/09/02 06:58:08;;;;;;;4.70;2.70;;;;;;;22.54;44.33;99675.72;4137130;28;20284;-65
2022/09/02 07:00:11;;;;;;;3.93;3.07;;;;;;;22.63;44.58;99666.16;4136721;28;20237;-62
2022/09/02 07:02:13;;;;;;;3.83;3.00;;;;;;;22.68;44.62;99668.16;4129759;28;20604;-62
2022/09/02 07:06:39;;;;;;;6.43;2.77;;;;;;;22.03;45.01;99706.03;4139635;28;20228;-64
2022/09/02 07:08:42;;;;;;;5.50;3.10;;;;;;;22.83;44.55;99647.56;4138181;28;20248;-65
2022/09/02 07:10:44;;;;;;;3.87;2.83;;;;;;;22.27;44.65;99697.88;4142600;28;20233;-64
2022/09/02 07:12:45;;;;;;;3.33;2.80;;;;;;;22.77;44.17;99661.25;4129457;28;20780;-63
2022/09/02 07:14:47;;;;;;;4.43;2.97;;;;;;;22.28;45.01;99683.28;4135892;28;20234;-64
2022/09/02 07:16:52;;;;;;;4.40;3.20;;;;;;;23.04;44.29;99634.41;4126583;28;20840;-64
2022/09/02 07:18:54;;;;;;;9.37;3.57;;;;;;;22.25;44.90;99698.16;4131662;28;20239;-64
2022/09/02 07:20:56;;;;;;;3.33;3.03;;;;;;;22.92;44.39;99656.16;4139166;28;20233;-64
2022/09/02 07:22:57;;;;;;;3.53;3.20;;;;;;;23.29;43.71;99692.88;4137103;28;20239;-64
2022/09/02 07:24:59;;;;;;;4.43;2.90;;;;;;;23.20;44.21;99700.59;4135566;28;20236;-64
2022/09/02 07:27:01;;;;;;;3.70;3.00;;;;;;;23.73;43.00;99660.50;4135249;28;20233;-63
2022/09/02 07:29:05;;;;;;;3.90;3.10;;;;;;;23.81;43.35;99662.78;4137572;28;20307;-66
2022/09/02 07:31:11;;;;;;;8.57;2.80;;;;;;;23.81;43.17;99646.50;4137720;28;20229;-63
2022/09/02 07:33:12;;;;;;;4.03;2.90;;;;;;;23.84;42.68;99670.44;4140381;28;20275;-64
2022/09/02 07:35:14;;;;;;;4.00;2.67;;;;;;;23.02;43.51;99698.91;4135052;28;20329;-63
2022/09/02 07:37:16;;;;;;;3.73;2.50;;;;;;;22.64;44.04;99686.75;4133018;28;20233;-64
2022/09/02 07:39:19;;;;;;;3.37;2.60;;;;;;;23.64;43.52;99651.97;4138824;28;20229;-65
2022/09/02 07:41:22;;;;;;;3.70;2.60;;;;;;;23.66;42.98;99679.66;4135740;28;20296;-64
2022/09/02 07:43:25;;;;;;;2.40;2.20;;;;;;;22.97;43.65;99694.19;4139028;28;20287;-64
2022/09/02 07:45:28;;;;;;;2.43;2.20;;;;;;;22.66;43.43;99698.19;4141502;28;20236;-64
2022/09/02 07:47:29;;;;;;;3.23;2.40;;;;;;;23.28;43.02;99678.50;4132581;28;20700;-64
2022/09/02 07:49:32;;;;;;;2.83;2.40;;;;;;;23.87;42.25;99675.38;4125939;28;20517;-64
2022/09/02 07:51:53;;;;;;;2.40;2.10;;;;;;;23.77;42.42;99683.34;4120810;28;20229;-64
2022/09/02 07:53:55;;;;;;;5.60;2.80;;;;;;;23.69;43.04;99678.38;4123802;28;20281;-63
2022/09/02 07:55:58;;;;;;;2.90;2.60;;;;;;;23.76;42.76;99693.41;4118530;28;20243;-65
2022/09/02 07:58:00;;;;;;;3.93;2.90;;;;;;;23.68;43.27;99704.66;4120959;28;20234;-65
2022/09/02 08:00:04;;;;;;;2.83;2.33;;;;;;;23.35;43.36;99697.31;4119135;28;20289;-63
2022/09/02 08:02:08;;;;;;;2.63;2.20;;;;;;;23.93;42.60;99666.22;4120013;28;20289;-63
2022/09/02 08:04:12;;;;;;;2.53;2.27;;;;;;;23.63;43.35;99687.50;4119723;28;20234;-65
2022/09/02 08:06:14;;;;;;;2.57;2.20;;;;;;;24.14;42.43;99685.50;4120551;28;20261;-64
2022/09/02 08:08:20;;;;;;;3.83;2.37;;;;;;;23.93;42.52;99693.38;4118572;28;20235;-63
2022/09/02 08:10:24;;;;;;;6.60;2.30;;;;;;;24.25;42.32;99684.63;4142485;28;20229;-64
2022/09/02 08:12:27;;;;;;;2.80;2.47;;;;;;;23.60;42.96;99702.38;4138471;23;20234;-83
2022/09/02 08:14:29;;;;;;;4.40;2.50;;;;;;;24.45;41.72;99669.66;4123048;28;20225;-81
2022/09/02 08:16:30;;;;;;;5.13;2.30;;;;;;;24.43;41.70;99688.09;4139730;28;20229;-84
2022/09/02 08:18:32;;;;;;;2.27;2.00;;;;;;;24.32;41.42;99687.16;4134457;28;20238;-88
2022/09/02 08:20:34;;;;;;;2.47;2.17;;;;;;;23.98;42.17;99710.84;4139285;28;20349;-79
2022/09/02 08:22:36;;;;;;;5.17;2.43;;;;;;;24.57;41.62;99683.94;4141041;28;20236;-84
2022/09/02 08:24:38;;;;;;;2.53;2.30;;;;;;;24.40;41.27;99713.06;4138438;28;20776;-79
2022/09/02 08:26:40;;;;;;;3.50;2.03;;;;;;;24.73;40.60;99703.94;4146255;28;20373;-81
2022/09/02 08:28:41;;;;;;;2.93;2.30;;;;;;;24.58;40.97;99714.63;4151425;28;20240;-84
2022/09/02 08:30:43;;;;;;;3.42;2.28;;;;;;;24.50;40.85;99707.75;4145189;28;20760;-87
2022/09/02 08:32:45;;;;;;;3.30;1.80;;;;;;;24.45;40.97;99713.13;4144903;28;20286;-83
2022/09/02 08:34:47;;;;;;;3.73;2.03;;;;;;;24.04;41.54;99705.22;4148905;28;20948;-83
2022/09/02 08:36:49;;;;;;;2.53;2.00;;;;;;;24.02;41.40;99698.38;4147748;28;20473;-80
2022/09/02 08:38:57;;;;;;;5.05;2.20;;;;;;;24.74;40.34;99683.03;4149343;28;20265;-80
2022/09/02 08:41:02;;;;;;;4.93;2.30;;;;;;;24.44;41.04;99696.00;4151513;28;20236;-83
2022/09/02 08:43:25;;;;;;;2.10;1.90;;;;;;;25.54;39.54;99664.22;4137455;28;20710;-80
2022/09/02 08:45:37;;;;;;;3.72;1.95;;;;;;;24.09;41.45;99693.59;4144186;28;20604;-81
2022/09/02 08:47:43;;;;;;;2.45;2.08;;;;;;;24.61;40.76;99698.63;4152507;28;20240;-83
2022/09/02 08:49:52;;;;;;;5.10;2.30;;;;;;;24.62;40.50;99683.97;4143841;28;20340;-87
2022/09/02 08:52:01;;;;;;;3.90;2.00;;;;;;;24.86;40.45;99689.97;4147329;28;20225;-87
2022/09/02 08:54:29;;;;;;;3.60;2.10;;;;;;;25.58;39.55;99670.81;4147299;28;20244;-85
2022/09/02 08:56:31;;;;;;;2.95;2.50;;;;;;;24.39;40.62;99700.53;4138062;28;20233;-83
2022/09/02 08:58:41;;;;;;;3.33;2.00;;;;;;;25.23;39.99;99685.72;4147074;28;20225;-89
2022/09/02 09:00:50;;;;;;;2.40;2.20;;;;;;;25.12;39.84;99689.41;4152340;28;20245;-85
2022/09/02 09:03:15;;;;;;;3.50;2.15;;;;;;;25.31;40.11;99679.00;4138053;28;20232;-81
2022/09/02 09:05:55;;;;;;;5.75;2.30;;;;;;;25.52;39.45;99660.94;4142687;28;20598;-87
2022/09/02 09:08:03;;;;;;;2.60;1.90;;;;;;;25.22;39.44;99697.69;4116790;28;20337;-81
2022/09/02 09:10:24;;;;;;;5.50;2.00;;;;;;;25.69;39.02;99688.84;4112451;28;20408;-85
2022/09/02 09:12:40;;;;;;;4.05;2.10;;;;;;;24.73;39.81;99694.97;4115078;28;20277;-85
2022/09/02 09:15:06;;;;;;;3.05;1.83;;;;;;;25.10;38.46;99695.13;4170688;28;20247;-87
2022/09/02 09:17:30;;;;;;;3.03;2.35;;;;;;;25.54;38.79;99673.25;4145719;28;20233;-81
2022/09/02 09:19:52;;;;;;;2.58;1.83;;;;;;;25.07;39.00;99719.28;4147884;28;20236;-83
2022/09/02 09:21:59;;;;;;;3.83;1.75;;;;;;;26.08;38.21;99680.44;4133819;28;20236;-80
2022/09/02 09:24:06;;;;;;;4.25;2.13;;;;;;;25.71;38.57;99697.59;4142126;28;20707;-83
2022/09/02 09:26:11;;;;;;;5.93;1.90;;;;;;;25.14;39.03;99696.25;4145000;28;20275;-83
2022/09/02 09:28:13;;;;;;;2.28;1.80;;;;;;;25.44;38.61;99694.91;4143745;28;20257;-82
2022/09/02 09:30:14;;;;;;;6.60;2.17;;;;;;;25.68;37.84;99691.81;4144942;28;20648;-84
2022/09/02 09:32:21;;;;;;;2.70;1.88;;;;;;;25.64;38.11;99686.09;4137961;28;20238;-86
2022/09/02 09:34:23;;;;;;;2.78;1.92;;;;;;;26.05;38.03;99689.13;4141076;28;20645;-85
2022/09/02 09:36:39;;;;;;;5.65;2.20;;;;;;;26.26;37.47;99672.88;4145062;28;20664;-87
2022/09/02 09:38:41;;;;;;;2.85;2.10;;;;;;;25.88;37.58;99693.88;4142820;28;20639;-84
2022/09/02 09:40:43;;;;;;;3.05;1.90;;;;;;;26.20;37.41;99671.19;4161021;28;20826;-88
2022/09/02 09:42:46;;;;;;;3.00;1.80;;;;;;;26.46;37.02;99675.69;4143135;28;20736;-82
2022/09/02 09:44:53;;;;;;;2.05;1.80;;;;;;;25.62;37.70;99682.00;4139590;28;20244;-84
2022/09/02 09:47:05;;;;;;;2.30;2.10;;;;;;;26.66;37.43;99676.88;4140463;28;20264;-84
2022/09/02 09:49:07;;;;;;;5.18;2.40;;;;;;;26.61;36.87;99683.13;4143300;28;20714;-80